sensor_id;sensor_type;location;lat;lon;timestamp;P1;durP1;ratioP1;P2;durP2;ratioP2
37483;SDS011;23337;52.212;9.926;2023-09-08T00:02:09;4.70;;;4.30;;
37483;SDS011;23337;52.212;9.926;2023-09-08T00:04:35;6.90;;;5.07;;
37483;SDS011;23337;52.212;9.926;2023-09-08T00:07:01;6.03;;;5.00;;
37483;SDS011;23337;52.212;9.926;2023-09-08T00:09:27;8.80;;;5.27;;
37483;SDS011;23337;52.212;9.926;2023-09-08T00:11:53;6.50;;;5.80;;
37483;SDS011;23337;52.212;9.926;2023-09-08T00:14:19;5.40;;;4.87;;
37483;SDS011;23337;52.212;9.926;2023-09-08T00:16:45;6.50;;;5.27;;
37483;SDS011;23337;52.212;9.926;2023-09-08T00:19:11;6.03;;;5.07;;
37483;SDS011;23337;52.212;9.926;2023-09-08T00:21:38;7.60;;;5.23;;
37483;SDS011;23337;52.212;9.926;2023-09-08T00:24:04;5.83;;;5.10;;
37483;SDS011;23337;52.212;9.926;2023-09-08T00:26:30;7.40;;;5.00;;
37483;SDS011;23337;52.212;9.926;2023-09-08T00:28:56;9.77;;;5.40;;
37483;SDS011;23337;52.212;9.926;2023-09-08T00:31:22;6.63;;;5.20;;
37483;SDS011;23337;52.212;9.926;2023-09-08T00:33:48;7.87;;;5.63;;
37483;SDS011;23337;52.212;9.926;2023-09-08T00:36:14;7.33;;;6.07;;
37483;SDS011;23337;52.212;9.926;2023-09-08T00:38:40;6.47;;;5.27;;
37483;SDS011;23337;52.212;9.926;2023-09-08T00:41:06;7.83;;;6.60;;
37483;SDS011;23337;52.212;9.926;2023-09-08T00:43:32;5.97;;;5.37;;
37483;SDS011;23337;52.212;9.926;2023-09-08T00:45:58;7.70;;;5.47;;
37483;SDS011;23337;52.212;9.926;2023-09-08T00:48:26;6.03;;;5.53;;
37483;SDS011;23337;52.212;9.926;2023-09-08T00:50:52;6.20;;;5.63;;
37483;SDS011;23337;52.212;9.926;2023-09-08T00:53:18;8.83;;;5.80;;
37483;SDS011;23337;52.212;9.926;2023-09-08T00:55:44;6.57;;;5.97;;
37483;SDS011;23337;52.212;9.926;2023-09-08T00:58:13;6.47;;;5.90;;
37483;SDS011;23337;52.212;9.926;2023-09-08T01:00:39;6.03;;;4.90;;
37483;SDS011;23337;52.212;9.926;2023-09-08T01:03:05;7.23;;;5.67;;
37483;SDS011;23337;52.212;9.926;2023-09-08T01:05:31;6.40;;;5.33;;
37483;SDS011;23337;52.212;9.926;2023-09-08T01:07:58;6.90;;;6.07;;
37483;SDS011;23337;52.212;9.926;2023-09-08T01:10:25;7.37;;;5.30;;
37483;SDS011;23337;52.212;9.926;2023-09-08T01:12:51;6.40;;;5.47;;
37483;SDS011;23337;52.212;9.926;2023-09-08T01:15:17;5.70;;;5.20;;
37483;SDS011;23337;52.212;9.926;2023-09-08T01:17:43;7.47;;;5.63;;
37483;SDS011;23337;52.212;9.926;2023-09-08T01:20:12;7.40;;;5.80;;
37483;SDS011;23337;52.212;9.926;2023-09-08T01:25:25;6.23;;;5.40;;
37483;SDS011;23337;52.212;9.926;2023-09-08T01:27:53;5.80;;;5.30;;
37483;SDS011;23337;52.212;9.926;2023-09-08T01:30:21;8.67;;;5.83;;
37483;SDS011;23337;52.212;9.926;2023-09-08T01:32:47;6.23;;;5.50;;
37483;SDS011;23337;52.212;9.926;2023-09-08T01:35:13;6.07;;;5.57;;
37483;SDS011;23337;52.212;9.926;2023-09-08T01:37:40;7.23;;;6.30;;
37483;SDS011;23337;52.212;9.926;2023-09-08T01:40:07;6.13;;;5.60;;
37483;SDS011;23337;52.212;9.926;2023-09-08T01:42:34;6.17;;;5.57;;
37483;SDS011;23337;52.212;9.926;2023-09-08T01:45:00;6.13;;;5.53;;
37483;SDS011;23337;52.212;9.926;2023-09-08T01:47:28;7.13;;;5.50;;
37483;SDS011;23337;52.212;9.926;2023-09-08T01:49:54;5.63;;;5.13;;
37483;SDS011;23337;52.212;9.926;2023-09-08T01:52:20;7.17;;;5.33;;
37483;SDS011;23337;52.212;9.926;2023-09-08T01:54:46;7.00;;;5.60;;
37483;SDS011;23337;52.212;9.926;2023-09-08T01:57:12;6.70;;;6.00;;
37483;SDS011;23337;52.212;9.926;2023-09-08T01:59:38;6.33;;;5.77;;
37483;SDS011;23337;52.212;9.926;2023-09-08T02:02:05;8.13;;;6.03;;
37483;SDS011;23337;52.212;9.926;2023-09-08T02:04:31;6.07;;;5.47;;
37483;SDS011;23337;52.212;9.926;2023-09-08T02:06:57;7.70;;;6.33;;
37483;SDS011;23337;52.212;9.926;2023-09-08T02:09:29;6.47;;;5.87;;
37483;SDS011;23337;52.212;9.926;2023-09-08T02:11:56;7.03;;;6.33;;
37483;SDS011;23337;52.212;9.926;2023-09-08T02:14:22;6.83;;;6.03;;
37483;SDS011;23337;52.212;9.926;2023-09-08T02:16:47;6.60;;;6.00;;
37483;SDS011;23337;52.212;9.926;2023-09-08T02:19:13;7.27;;;6.10;;
37483;SDS011;23337;52.212;9.926;2023-09-08T02:21:39;6.40;;;5.80;;
37483;SDS011;23337;52.212;9.926;2023-09-08T02:24:05;7.33;;;5.73;;
37483;SDS011;23337;52.212;9.926;2023-09-08T02:26:31;7.03;;;5.83;;
37483;SDS011;23337;52.212;9.926;2023-09-08T02:28:58;6.83;;;6.23;;
37483;SDS011;23337;52.212;9.926;2023-09-08T02:31:25;6.30;;;5.70;;
37483;SDS011;23337;52.212;9.926;2023-09-08T02:33:51;6.43;;;5.50;;
37483;SDS011;23337;52.212;9.926;2023-09-08T02:36:17;6.17;;;5.10;;
37483;SDS011;23337;52.212;9.926;2023-09-08T02:38:50;5.63;;;5.13;;
37483;SDS011;23337;52.212;9.926;2023-09-08T02:43:57;6.57;;;5.90;;
37483;SDS011;23337;52.212;9.926;2023-09-08T02:46:22;6.33;;;5.80;;
37483;SDS011;23337;52.212;9.926;2023-09-08T02:48:48;8.20;;;5.37;;
37483;SDS011;23337;52.212;9.926;2023-09-08T02:51:14;6.00;;;5.00;;
37483;SDS011;23337;52.212;9.926;2023-09-08T02:53:40;5.93;;;5.33;;
37483;SDS011;23337;52.212;9.926;2023-09-08T02:56:06;6.70;;;6.10;;
37483;SDS011;23337;52.212;9.926;2023-09-08T02:58:34;7.63;;;6.53;;
37483;SDS011;23337;52.212;9.926;2023-09-08T03:01:10;6.90;;;6.20;;
37483;SDS011;23337;52.212;9.926;2023-09-08T03:03:36;6.33;;;5.77;;
37483;SDS011;23337;52.212;9.926;2023-09-08T03:06:03;6.33;;;5.73;;
37483;SDS011;23337;52.212;9.926;2023-09-08T03:08:29;5.93;;;5.43;;
37483;SDS011;23337;52.212;9.926;2023-09-08T03:10:56;7.07;;;5.97;;
37483;SDS011;23337;52.212;9.926;2023-09-08T03:13:22;6.83;;;6.13;;
37483;SDS011;23337;52.212;9.926;2023-09-08T03:15:48;7.27;;;5.97;;
37483;SDS011;23337;52.212;9.926;2023-09-08T03:18:14;7.67;;;6.20;;
37483;SDS011;23337;52.212;9.926;2023-09-08T03:20:40;7.83;;;6.80;;
37483;SDS011;23337;52.212;9.926;2023-09-08T03:23:06;7.40;;;6.70;;
37483;SDS011;23337;52.212;9.926;2023-09-08T03:25:32;5.63;;;5.10;;
37483;SDS011;23337;52.212;9.926;2023-09-08T03:27:58;7.93;;;4.80;;
37483;SDS011;23337;52.212;9.926;2023-09-08T03:30:24;6.23;;;5.57;;
37483;SDS011;23337;52.212;9.926;2023-09-08T03:32:50;8.63;;;7.40;;
37483;SDS011;23337;52.212;9.926;2023-09-08T03:35:16;7.43;;;6.50;;
37483;SDS011;23337;52.212;9.926;2023-09-08T03:37:42;7.33;;;6.60;;
37483;SDS011;23337;52.212;9.926;2023-09-08T03:40:08;7.60;;;6.87;;
37483;SDS011;23337;52.212;9.926;2023-09-08T03:42:34;8.67;;;7.87;;
37483;SDS011;23337;52.212;9.926;2023-09-08T03:45:00;7.70;;;7.03;;
37483;SDS011;23337;52.212;9.926;2023-09-08T03:47:26;8.23;;;6.73;;
37483;SDS011;23337;52.212;9.926;2023-09-08T03:49:52;8.47;;;7.67;;
37483;SDS011;23337;52.212;9.926;2023-09-08T03:52:18;7.47;;;6.60;;
37483;SDS011;23337;52.212;9.926;2023-09-08T03:54:44;11.57;;;7.27;;
37483;SDS011;23337;52.212;9.926;2023-09-08T03:57:11;8.83;;;7.93;;
37483;SDS011;23337;52.212;9.926;2023-09-08T03:59:37;8.80;;;7.90;;
37483;SDS011;23337;52.212;9.926;2023-09-08T04:02:03;9.30;;;8.37;;
37483;SDS011;23337;52.212;9.926;2023-09-08T04:04:29;7.90;;;7.07;;
37483;SDS011;23337;52.212;9.926;2023-09-08T04:06:55;8.63;;;7.33;;
37483;SDS011;23337;52.212;9.926;2023-09-08T04:09:21;8.80;;;7.30;;
37483;SDS011;23337;52.212;9.926;2023-09-08T04:11:46;9.23;;;7.33;;
37483;SDS011;23337;52.212;9.926;2023-09-08T04:14:12;7.10;;;6.40;;
37483;SDS011;23337;52.212;9.926;2023-09-08T04:16:38;7.87;;;6.67;;
37483;SDS011;23337;52.212;9.926;2023-09-08T04:19:04;7.90;;;7.20;;
37483;SDS011;23337;52.212;9.926;2023-09-08T04:21:30;9.43;;;7.50;;
37483;SDS011;23337;52.212;9.926;2023-09-08T04:23:56;7.63;;;6.83;;
37483;SDS011;23337;52.212;9.926;2023-09-08T04:26:22;8.63;;;7.30;;
37483;SDS011;23337;52.212;9.926;2023-09-08T04:28:48;7.93;;;7.13;;
37483;SDS011;23337;52.212;9.926;2023-09-08T04:31:14;8.90;;;7.83;;
37483;SDS011;23337;52.212;9.926;2023-09-08T04:33:41;7.90;;;7.10;;
37483;SDS011;23337;52.212;9.926;2023-09-08T04:36:07;10.07;;;8.20;;
37483;SDS011;23337;52.212;9.926;2023-09-08T04:38:33;8.87;;;7.77;;
37483;SDS011;23337;52.212;9.926;2023-09-08T04:40:59;8.23;;;7.53;;
37483;SDS011;23337;52.212;9.926;2023-09-08T04:43:25;8.47;;;7.13;;
37483;SDS011;23337;52.212;9.926;2023-09-08T04:45:51;8.10;;;7.13;;
37483;SDS011;23337;52.212;9.926;2023-09-08T04:48:17;8.90;;;7.93;;
37483;SDS011;23337;52.212;9.926;2023-09-08T04:50:43;8.87;;;6.80;;
37483;SDS011;23337;52.212;9.926;2023-09-08T04:53:09;8.27;;;7.37;;
37483;SDS011;23337;52.212;9.926;2023-09-08T04:55:35;8.93;;;7.90;;
37483;SDS011;23337;52.212;9.926;2023-09-08T04:58:00;8.47;;;7.43;;
37483;SDS011;23337;52.212;9.926;2023-09-08T05:00:26;12.33;;;8.53;;
37483;SDS011;23337;52.212;9.926;2023-09-08T05:02:52;9.83;;;8.40;;
37483;SDS011;23337;52.212;9.926;2023-09-08T05:05:18;10.50;;;8.23;;
37483;SDS011;23337;52.212;9.926;2023-09-08T05:07:44;8.23;;;7.43;;
37483;SDS011;23337;52.212;9.926;2023-09-08T05:10:10;10.30;;;7.67;;
37483;SDS011;23337;52.212;9.926;2023-09-08T05:12:36;9.50;;;8.03;;
37483;SDS011;23337;52.212;9.926;2023-09-08T05:15:02;8.80;;;7.33;;
37483;SDS011;23337;52.212;9.926;2023-09-08T05:17:35;9.27;;;7.53;;
37483;SDS011;23337;52.212;9.926;2023-09-08T05:20:01;10.80;;;8.83;;
37483;SDS011;23337;52.212;9.926;2023-09-08T05:22:28;8.97;;;7.57;;
37483;SDS011;23337;52.212;9.926;2023-09-08T05:24:54;9.40;;;8.47;;
37483;SDS011;23337;52.212;9.926;2023-09-08T05:27:20;10.50;;;7.73;;
37483;SDS011;23337;52.212;9.926;2023-09-08T05:29:46;9.73;;;8.10;;
37483;SDS011;23337;52.212;9.926;2023-09-08T05:32:12;9.80;;;8.90;;
37483;SDS011;23337;52.212;9.926;2023-09-08T05:34:38;10.43;;;8.47;;
37483;SDS011;23337;52.212;9.926;2023-09-08T05:37:04;12.37;;;9.03;;
37483;SDS011;23337;52.212;9.926;2023-09-08T05:39:30;9.97;;;9.07;;
37483;SDS011;23337;52.212;9.926;2023-09-08T05:41:56;11.83;;;9.37;;
37483;SDS011;23337;52.212;9.926;2023-09-08T05:44:22;13.47;;;10.63;;
37483;SDS011;23337;52.212;9.926;2023-09-08T05:46:50;12.87;;;11.57;;
37483;SDS011;23337;52.212;9.926;2023-09-08T05:49:16;16.80;;;14.40;;
37483;SDS011;23337;52.212;9.926;2023-09-08T05:51:43;17.90;;;12.13;;
37483;SDS011;23337;52.212;9.926;2023-09-08T05:54:09;12.93;;;10.67;;
37483;SDS011;23337;52.212;9.926;2023-09-08T05:56:36;13.27;;;11.07;;
37483;SDS011;23337;52.212;9.926;2023-09-08T05:59:02;13.20;;;11.67;;
37483;SDS011;23337;52.212;9.926;2023-09-08T06:01:28;14.03;;;10.30;;
37483;SDS011;23337;52.212;9.926;2023-09-08T06:03:54;11.70;;;9.97;;
37483;SDS011;23337;52.212;9.926;2023-09-08T06:06:20;11.00;;;8.17;;
37483;SDS011;23337;52.212;9.926;2023-09-08T06:08:47;8.03;;;7.13;;
37483;SDS011;23337;52.212;9.926;2023-09-08T06:11:13;8.53;;;7.57;;
37483;SDS011;23337;52.212;9.926;2023-09-08T06:13:39;11.13;;;7.53;;
37483;SDS011;23337;52.212;9.926;2023-09-08T06:16:05;11.03;;;7.23;;
37483;SDS011;23337;52.212;9.926;2023-09-08T06:18:30;13.67;;;7.47;;
37483;SDS011;23337;52.212;9.926;2023-09-08T06:20:57;9.37;;;7.57;;
37483;SDS011;23337;52.212;9.926;2023-09-08T06:23:23;12.10;;;8.97;;
37483;SDS011;23337;52.212;9.926;2023-09-08T06:25:49;13.67;;;9.50;;
37483;SDS011;23337;52.212;9.926;2023-09-08T06:28:15;13.70;;;9.27;;
37483;SDS011;23337;52.212;9.926;2023-09-08T06:30:41;16.80;;;9.77;;
37483;SDS011;23337;52.212;9.926;2023-09-08T06:33:07;11.20;;;9.97;;
37483;SDS011;23337;52.212;9.926;2023-09-08T06:35:33;11.37;;;10.10;;
37483;SDS011;23337;52.212;9.926;2023-09-08T06:37:59;12.43;;;9.47;;
37483;SDS011;23337;52.212;9.926;2023-09-08T06:40:25;11.83;;;10.03;;
37483;SDS011;23337;52.212;9.926;2023-09-08T06:42:51;11.37;;;9.73;;
37483;SDS011;23337;52.212;9.926;2023-09-08T06:45:18;17.00;;;11.87;;
37483;SDS011;23337;52.212;9.926;2023-09-08T06:47:44;15.13;;;9.60;;
37483;SDS011;23337;52.212;9.926;2023-09-08T06:50:10;13.97;;;9.93;;
37483;SDS011;23337;52.212;9.926;2023-09-08T06:52:36;12.17;;;9.73;;
37483;SDS011;23337;52.212;9.926;2023-09-08T06:55:02;12.00;;;8.97;;
37483;SDS011;23337;52.212;9.926;2023-09-08T06:57:28;12.40;;;9.23;;
37483;SDS011;23337;52.212;9.926;2023-09-08T06:59:54;15.00;;;10.63;;
37483;SDS011;23337;52.212;9.926;2023-09-08T07:02:19;13.93;;;9.40;;
37483;SDS011;23337;52.212;9.926;2023-09-08T07:04:45;12.03;;;8.53;;
37483;SDS011;23337;52.212;9.926;2023-09-08T07:07:11;11.00;;;9.40;;
37483;SDS011;23337;52.212;9.926;2023-09-08T07:09:37;11.23;;;9.30;;
37483;SDS011;23337;52.212;9.926;2023-09-08T07:12:03;8.93;;;8.03;;
37483;SDS011;23337;52.212;9.926;2023-09-08T07:14:30;8.20;;;7.37;;
37483;SDS011;23337;52.212;9.926;2023-09-08T07:16:56;7.83;;;7.03;;
37483;SDS011;23337;52.212;9.926;2023-09-08T07:19:22;9.40;;;7.63;;
37483;SDS011;23337;52.212;9.926;2023-09-08T07:21:48;9.50;;;8.40;;
37483;SDS011;23337;52.212;9.926;2023-09-08T07:24:14;9.53;;;7.53;;
37483;SDS011;23337;52.212;9.926;2023-09-08T07:26:40;9.57;;;7.80;;
37483;SDS011;23337;52.212;9.926;2023-09-08T07:29:06;8.80;;;7.60;;
37483;SDS011;23337;52.212;9.926;2023-09-08T07:31:32;11.27;;;8.07;;
37483;SDS011;23337;52.212;9.926;2023-09-08T07:33:58;8.43;;;7.63;;
37483;SDS011;23337;52.212;9.926;2023-09-08T07:36:24;10.60;;;7.13;;
37483;SDS011;23337;52.212;9.926;2023-09-08T07:38:50;7.80;;;7.10;;
37483;SDS011;23337;52.212;9.926;2023-09-08T07:41:16;10.47;;;7.13;;
37483;SDS011;23337;52.212;9.926;2023-09-08T07:43:42;10.70;;;7.17;;
37483;SDS011;23337;52.212;9.926;2023-09-08T07:46:10;11.30;;;7.90;;
37483;SDS011;23337;52.212;9.926;2023-09-08T07:48:36;7.23;;;6.63;;
37483;SDS011;23337;52.212;9.926;2023-09-08T07:51:02;8.43;;;7.10;;
37483;SDS011;23337;52.212;9.926;2023-09-08T07:53:28;8.07;;;6.67;;
37483;SDS011;23337;52.212;9.926;2023-09-08T07:55:54;8.10;;;7.33;;
37483;SDS011;23337;52.212;9.926;2023-09-08T07:58:21;7.43;;;6.63;;
37483;SDS011;23337;52.212;9.926;2023-09-08T08:00:47;9.63;;;7.33;;
37483;SDS011;23337;52.212;9.926;2023-09-08T08:03:13;11.07;;;7.00;;
37483;SDS011;23337;52.212;9.926;2023-09-08T08:05:38;11.53;;;6.63;;
37483;SDS011;23337;52.212;9.926;2023-09-08T08:08:04;7.40;;;6.37;;
37483;SDS011;23337;52.212;9.926;2023-09-08T08:10:31;8.73;;;6.60;;
37483;SDS011;23337;52.212;9.926;2023-09-08T08:12:57;9.47;;;5.67;;
37483;SDS011;23337;52.212;9.926;2023-09-08T08:15:33;8.43;;;6.50;;
37483;SDS011;23337;52.212;9.926;2023-09-08T08:18:00;8.83;;;6.00;;
37483;SDS011;23337;52.212;9.926;2023-09-08T08:20:25;7.30;;;5.60;;
37483;SDS011;23337;52.212;9.926;2023-09-08T08:22:51;11.47;;;6.00;;
37483;SDS011;23337;52.212;9.926;2023-09-08T08:25:17;7.60;;;5.60;;
37483;SDS011;23337;52.212;9.926;2023-09-08T08:27:43;6.40;;;5.23;;
37483;SDS011;23337;52.212;9.926;2023-09-08T08:30:09;7.07;;;5.57;;
37483;SDS011;23337;52.212;9.926;2023-09-08T08:32:36;6.30;;;4.83;;
37483;SDS011;23337;52.212;9.926;2023-09-08T08:35:02;7.10;;;5.83;;
37483;SDS011;23337;52.212;9.926;2023-09-08T08:37:29;6.83;;;5.77;;
37483;SDS011;23337;52.212;9.926;2023-09-08T08:39:55;5.93;;;5.00;;
37483;SDS011;23337;52.212;9.926;2023-09-08T08:42:21;5.97;;;4.80;;
37483;SDS011;23337;52.212;9.926;2023-09-08T08:44:47;5.83;;;4.80;;
37483;SDS011;23337;52.212;9.926;2023-09-08T08:47:14;5.13;;;4.70;;
37483;SDS011;23337;52.212;9.926;2023-09-08T08:49:42;5.07;;;4.60;;
37483;SDS011;23337;52.212;9.926;2023-09-08T08:52:11;4.80;;;4.40;;
37483;SDS011;23337;52.212;9.926;2023-09-08T08:54:38;6.90;;;4.93;;
37483;SDS011;23337;52.212;9.926;2023-09-08T08:57:04;7.07;;;4.77;;
37483;SDS011;23337;52.212;9.926;2023-09-08T08:59:31;7.77;;;4.70;;
37483;SDS011;23337;52.212;9.926;2023-09-08T09:01:57;6.87;;;4.80;;
37483;SDS011;23337;52.212;9.926;2023-09-08T09:04:24;4.83;;;4.20;;
37483;SDS011;23337;52.212;9.926;2023-09-08T09:06:50;5.67;;;4.70;;
37483;SDS011;23337;52.212;9.926;2023-09-08T09:09:16;5.70;;;4.83;;
37483;SDS011;23337;52.212;9.926;2023-09-08T09:11:42;6.73;;;4.67;;
37483;SDS011;23337;52.212;9.926;2023-09-08T09:14:08;5.33;;;4.07;;
37483;SDS011;23337;52.212;9.926;2023-09-08T09:16:43;9.80;;;5.20;;
37483;SDS011;23337;52.212;9.926;2023-09-08T09:19:10;6.73;;;4.43;;
37483;SDS011;23337;52.212;9.926;2023-09-08T09:24:15;5.20;;;4.23;;
37483;SDS011;23337;52.212;9.926;2023-09-08T09:26:43;5.83;;;4.90;;
37483;SDS011;23337;52.212;9.926;2023-09-08T09:29:14;5.83;;;4.47;;
37483;SDS011;23337;52.212;9.926;2023-09-08T09:31:50;5.03;;;4.53;;
37483;SDS011;23337;52.212;9.926;2023-09-08T09:34:17;6.23;;;4.30;;
37483;SDS011;23337;52.212;9.926;2023-09-08T09:36:43;5.97;;;4.30;;
37483;SDS011;23337;52.212;9.926;2023-09-08T09:39:10;4.87;;;4.47;;
37483;SDS011;23337;52.212;9.926;2023-09-08T09:41:37;6.13;;;4.47;;
37483;SDS011;23337;52.212;9.926;2023-09-08T09:44:03;4.73;;;4.23;;
37483;SDS011;23337;52.212;9.926;2023-09-08T09:46:29;4.07;;;3.60;;
37483;SDS011;23337;52.212;9.926;2023-09-08T09:48:55;4.57;;;4.17;;
37483;SDS011;23337;52.212;9.926;2023-09-08T09:51:23;4.67;;;4.30;;
37483;SDS011;23337;52.212;9.926;2023-09-08T09:53:50;11.13;;;5.23;;
37483;SDS011;23337;52.212;9.926;2023-09-08T09:56:19;5.50;;;4.40;;
37483;SDS011;23337;52.212;9.926;2023-09-08T09:58:45;4.40;;;4.00;;
37483;SDS011;23337;52.212;9.926;2023-09-08T10:01:12;3.90;;;3.60;;
37483;SDS011;23337;52.212;9.926;2023-09-08T10:03:39;4.77;;;4.30;;
37483;SDS011;23337;52.212;9.926;2023-09-08T10:06:05;4.83;;;4.33;;
37483;SDS011;23337;52.212;9.926;2023-09-08T10:08:32;4.53;;;4.17;;
37483;SDS011;23337;52.212;9.926;2023-09-08T10:10:59;5.00;;;3.77;;
37483;SDS011;23337;52.212;9.926;2023-09-08T10:13:26;4.30;;;3.60;;
37483;SDS011;23337;52.212;9.926;2023-09-08T10:15:54;4.23;;;3.83;;
37483;SDS011;23337;52.212;9.926;2023-09-08T10:18:23;3.77;;;3.47;;
37483;SDS011;23337;52.212;9.926;2023-09-08T10:20:51;4.70;;;3.80;;
37483;SDS011;23337;52.212;9.926;2023-09-08T10:23:27;3.90;;;3.50;;
37483;SDS011;23337;52.212;9.926;2023-09-08T10:25:57;4.37;;;3.70;;
37483;SDS011;23337;52.212;9.926;2023-09-08T10:28:25;5.33;;;3.70;;
37483;SDS011;23337;52.212;9.926;2023-09-08T10:30:52;6.63;;;4.03;;
37483;SDS011;23337;52.212;9.926;2023-09-08T10:33:19;4.47;;;3.77;;
37483;SDS011;23337;52.212;9.926;2023-09-08T10:35:45;4.90;;;4.30;;
37483;SDS011;23337;52.212;9.926;2023-09-08T10:38:21;4.53;;;4.23;;
37483;SDS011;23337;52.212;9.926;2023-09-08T10:40:51;3.73;;;3.43;;
37483;SDS011;23337;52.212;9.926;2023-09-08T10:43:17;5.53;;;3.50;;
37483;SDS011;23337;52.212;9.926;2023-09-08T10:45:43;4.87;;;3.47;;
37483;SDS011;23337;52.212;9.926;2023-09-08T10:48:09;4.40;;;3.53;;
37483;SDS011;23337;52.212;9.926;2023-09-08T10:50:38;4.70;;;4.20;;
37483;SDS011;23337;52.212;9.926;2023-09-08T10:53:13;4.22;;;3.75;;
37483;SDS011;23337;52.212;9.926;2023-09-08T10:55:43;4.63;;;4.22;;
37483;SDS011;23337;52.212;9.926;2023-09-08T10:58:16;6.68;;;3.83;;
37483;SDS011;23337;52.212;9.926;2023-09-08T11:00:44;4.70;;;4.10;;
37483;SDS011;23337;52.212;9.926;2023-09-08T11:03:10;6.90;;;3.15;;
37483;SDS011;23337;52.212;9.926;2023-09-08T11:05:36;3.42;;;3.08;;
37483;SDS011;23337;52.212;9.926;2023-09-08T11:08:02;5.97;;;3.75;;
37483;SDS011;23337;52.212;9.926;2023-09-08T11:10:29;4.13;;;3.35;;
37483;SDS011;23337;52.212;9.926;2023-09-08T11:12:56;4.40;;;3.67;;
37483;SDS011;23337;52.212;9.926;2023-09-08T11:15:22;5.30;;;3.13;;
37483;SDS011;23337;52.212;9.926;2023-09-08T11:17:48;5.20;;;3.70;;
37483;SDS011;23337;52.212;9.926;2023-09-08T11:20:16;4.03;;;3.63;;
37483;SDS011;23337;52.212;9.926;2023-09-08T11:22:42;3.42;;;3.00;;
37483;SDS011;23337;52.212;9.926;2023-09-08T11:25:10;3.67;;;3.30;;
37483;SDS011;23337;52.212;9.926;2023-09-08T11:27:37;4.03;;;2.78;;
37483;SDS011;23337;52.212;9.926;2023-09-08T11:30:05;3.10;;;2.83;;
37483;SDS011;23337;52.212;9.926;2023-09-08T11:32:32;4.20;;;3.47;;
37483;SDS011;23337;52.212;9.926;2023-09-08T11:35:05;3.58;;;3.15;;
37483;SDS011;23337;52.212;9.926;2023-09-08T11:37:35;4.18;;;2.88;;
37483;SDS011;23337;52.212;9.926;2023-09-08T11:40:03;4.20;;;3.05;;
37483;SDS011;23337;52.212;9.926;2023-09-08T11:42:34;4.28;;;3.00;;
37483;SDS011;23337;52.212;9.926;2023-09-08T11:45:00;4.90;;;3.08;;
37483;SDS011;23337;52.212;9.926;2023-09-08T11:47:28;2.97;;;2.65;;
37483;SDS011;23337;52.212;9.926;2023-09-08T11:49:55;3.28;;;2.97;;
37483;SDS011;23337;52.212;9.926;2023-09-08T11:52:22;5.13;;;3.15;;
37483;SDS011;23337;52.212;9.926;2023-09-08T11:54:51;3.47;;;3.17;;
37483;SDS011;23337;52.212;9.926;2023-09-08T11:57:17;3.80;;;3.40;;
37483;SDS011;23337;52.212;9.926;2023-09-08T11:59:44;4.55;;;3.78;;
37483;SDS011;23337;52.212;9.926;2023-09-08T12:02:13;2.92;;;2.70;;
37483;SDS011;23337;52.212;9.926;2023-09-08T12:04:39;4.43;;;3.10;;
37483;SDS011;23337;52.212;9.926;2023-09-08T12:07:07;4.53;;;3.03;;
37483;SDS011;23337;52.212;9.926;2023-09-08T12:09:34;3.45;;;2.70;;
37483;SDS011;23337;52.212;9.926;2023-09-08T12:12:00;3.40;;;3.10;;
37483;SDS011;23337;52.212;9.926;2023-09-08T12:14:27;3.42;;;2.90;;
37483;SDS011;23337;52.212;9.926;2023-09-08T12:17:04;4.07;;;3.22;;
37483;SDS011;23337;52.212;9.926;2023-09-08T12:19:32;5.05;;;3.20;;
37483;SDS011;23337;52.212;9.926;2023-09-08T12:22:02;3.47;;;2.92;;
37483;SDS011;23337;52.212;9.926;2023-09-08T12:27:16;2.97;;;2.67;;
37483;SDS011;23337;52.212;9.926;2023-09-08T12:29:51;4.60;;;2.72;;
37483;SDS011;23337;52.212;9.926;2023-09-08T12:32:17;2.97;;;2.78;;
37483;SDS011;23337;52.212;9.926;2023-09-08T12:34:43;3.20;;;2.85;;
37483;SDS011;23337;52.212;9.926;2023-09-08T12:37:09;4.00;;;2.60;;
37483;SDS011;23337;52.212;9.926;2023-09-08T12:39:37;6.30;;;2.67;;
37483;SDS011;23337;52.212;9.926;2023-09-08T12:42:03;2.90;;;2.70;;
37483;SDS011;23337;52.212;9.926;2023-09-08T12:44:29;2.67;;;2.47;;
37483;SDS011;23337;52.212;9.926;2023-09-08T12:46:55;3.30;;;2.90;;
37483;SDS011;23337;52.212;9.926;2023-09-08T12:49:21;3.85;;;3.45;;
37483;SDS011;23337;52.212;9.926;2023-09-08T12:51:47;4.22;;;2.90;;
37483;SDS011;23337;52.212;9.926;2023-09-08T12:54:13;3.15;;;2.75;;
37483;SDS011;23337;52.212;9.926;2023-09-08T12:56:39;3.45;;;3.17;;
37483;SDS011;23337;52.212;9.926;2023-09-08T12:59:05;5.30;;;3.35;;
37483;SDS011;23337;52.212;9.926;2023-09-08T13:01:31;2.65;;;2.45;;
37483;SDS011;23337;52.212;9.926;2023-09-08T13:03:57;3.38;;;3.08;;
37483;SDS011;23337;52.212;9.926;2023-09-08T13:06:23;4.55;;;2.92;;
37483;SDS011;23337;52.212;9.926;2023-09-08T13:08:49;6.38;;;2.92;;
37483;SDS011;23337;52.212;9.926;2023-09-08T13:11:15;4.78;;;3.10;;
37483;SDS011;23337;52.212;9.926;2023-09-08T13:13:41;2.90;;;2.60;;
37483;SDS011;23337;52.212;9.926;2023-09-08T13:16:07;4.57;;;2.88;;
37483;SDS011;23337;52.212;9.926;2023-09-08T13:18:33;3.97;;;3.05;;
37483;SDS011;23337;52.212;9.926;2023-09-08T13:21:03;2.95;;;2.75;;
37483;SDS011;23337;52.212;9.926;2023-09-08T13:23:29;4.63;;;3.03;;
37483;SDS011;23337;52.212;9.926;2023-09-08T13:25:55;3.88;;;3.10;;
37483;SDS011;23337;52.212;9.926;2023-09-08T13:28:21;5.53;;;3.35;;
37483;SDS011;23337;52.212;9.926;2023-09-08T13:30:47;2.72;;;2.22;;
37483;SDS011;23337;52.212;9.926;2023-09-08T13:33:13;4.43;;;2.78;;
37483;SDS011;23337;52.212;9.926;2023-09-08T13:35:39;3.35;;;2.75;;
37483;SDS011;23337;52.212;9.926;2023-09-08T13:38:05;3.63;;;2.92;;
37483;SDS011;23337;52.212;9.926;2023-09-08T13:40:31;3.08;;;2.50;;
37483;SDS011;23337;52.212;9.926;2023-09-08T13:42:57;7.45;;;3.15;;
37483;SDS011;23337;52.212;9.926;2023-09-08T13:45:23;3.88;;;3.08;;
37483;SDS011;23337;52.212;9.926;2023-09-08T13:47:49;3.20;;;2.90;;
37483;SDS011;23337;52.212;9.926;2023-09-08T13:50:15;3.17;;;2.88;;
37483;SDS011;23337;52.212;9.926;2023-09-08T13:52:41;2.80;;;2.60;;
37483;SDS011;23337;52.212;9.926;2023-09-08T13:55:08;2.90;;;2.63;;
37483;SDS011;23337;52.212;9.926;2023-09-08T13:57:35;2.70;;;2.50;;
37483;SDS011;23337;52.212;9.926;2023-09-08T14:00:01;2.95;;;2.75;;
37483;SDS011;23337;52.212;9.926;2023-09-08T14:02:27;2.85;;;2.60;;
37483;SDS011;23337;52.212;9.926;2023-09-08T14:04:53;3.22;;;3.00;;
37483;SDS011;23337;52.212;9.926;2023-09-08T14:07:19;2.72;;;2.47;;
37483;SDS011;23337;52.212;9.926;2023-09-08T14:09:45;3.50;;;2.95;;
37483;SDS011;23337;52.212;9.926;2023-09-08T14:12:11;3.15;;;2.85;;
37483;SDS011;23337;52.212;9.926;2023-09-08T14:14:37;3.65;;;3.00;;
37483;SDS011;23337;52.212;9.926;2023-09-08T14:17:03;5.10;;;3.92;;
37483;SDS011;23337;52.212;9.926;2023-09-08T14:19:29;7.38;;;3.00;;
37483;SDS011;23337;52.212;9.926;2023-09-08T14:21:55;3.28;;;2.92;;
37483;SDS011;23337;52.212;9.926;2023-09-08T14:24:22;5.32;;;2.90;;
37483;SDS011;23337;52.212;9.926;2023-09-08T14:26:48;3.60;;;3.17;;
37483;SDS011;23337;52.212;9.926;2023-09-08T14:29:16;3.38;;;3.05;;
37483;SDS011;23337;52.212;9.926;2023-09-08T14:31:42;5.43;;;2.95;;
37483;SDS011;23337;52.212;9.926;2023-09-08T14:34:08;6.55;;;3.15;;
37483;SDS011;23337;52.212;9.926;2023-09-08T14:36:34;4.95;;;3.13;;
37483;SDS011;23337;52.212;9.926;2023-09-08T14:39:00;3.85;;;3.28;;
37483;SDS011;23337;52.212;9.926;2023-09-08T14:41:26;4.70;;;3.22;;
37483;SDS011;23337;52.212;9.926;2023-09-08T14:43:52;3.42;;;3.10;;
37483;SDS011;23337;52.212;9.926;2023-09-08T14:46:18;3.47;;;3.17;;
37483;SDS011;23337;52.212;9.926;2023-09-08T14:48:44;3.88;;;3.35;;
37483;SDS011;23337;52.212;9.926;2023-09-08T14:51:10;5.00;;;2.67;;
37483;SDS011;23337;52.212;9.926;2023-09-08T14:53:36;4.55;;;3.33;;